Time;durP1;ratioP1;P1;durP2;ratioP2;P2;SDS_P1;SDS_P2;PMS_P1;PMS_P2;Temp;Humidity;BMP_temperature;BMP_pressure;BME280_temperature;BME280_humidity;BME280_pressure;Samples;Min_cycle;Max_cycle;Signal;HPM_P1;HPM_P2
2024/02/22 00:00:17;;;;;;;4.53;1.70;;;;;;;12.91;51.40;98997.59;4132293;28;20030;-69
2024/02/22 00:02:19;;;;;;;4.25;1.77;;;;;;;13.10;51.20;98994.34;4131496;28;20053;-69
2024/02/22 00:04:20;;;;;;;4.75;1.60;;;;;;;12.99;51.50;98983.28;4132038;28;20265;-69
2024/02/22 00:06:20;;;;;;;5.40;1.52;;;;;;;12.86;52.49;98982.06;4131074;28;20047;-68
2024/02/22 00:08:21;;;;;;;3.90;1.63;;;;;;;12.79;53.39;98975.78;4131201;28;20706;-69
2024/02/22 00:10:22;;;;;;;4.65;1.38;;;;;;;12.82;53.34;98967.38;4132366;28;20371;-69
2024/02/22 00:12:22;;;;;;;3.75;1.33;;;;;;;12.86;53.55;98959.81;4132316;28;20065;-69
2024/02/22 00:14:23;;;;;;;2.90;1.30;;;;;;;12.59;54.22;98960.25;4132495;28;20113;-68
2024/02/22 00:16:23;;;;;;;3.80;1.58;;;;;;;12.62;54.48;98943.81;4132233;28;20038;-70
2024/02/22 00:18:24;;;;;;;4.13;1.60;;;;;;;12.48;55.42;98950.00;4132453;28;20487;-69
2024/02/22 00:20:24;;;;;;;3.95;1.45;;;;;;;12.54;55.09;98943.06;4132021;28;20517;-68
2024/02/22 00:22:25;;;;;;;3.70;1.30;;;;;;;12.68;54.46;98939.56;4132680;28;20542;-69
2024/02/22 00:24:25;;;;;;;3.88;1.75;;;;;;;12.73;54.77;98936.31;4132213;28;20530;-69
2024/02/22 00:26:26;;;;;;;4.40;1.40;;;;;;;12.67;55.34;98932.53;4132201;28;20029;-70
2024/02/22 00:28:26;;;;;;;4.13;1.65;;;;;;;12.67;55.60;98929.84;4132538;28;20113;-70
2024/02/22 00:30:27;;;;;;;4.63;1.40;;;;;;;12.67;55.57;98920.97;4132807;28;20378;-70
2024/02/22 00:32:28;;;;;;;3.58;1.40;;;;;;;12.73;55.46;98918.38;4132524;28;20026;-70
2024/02/22 00:34:29;;;;;;;3.45;1.23;;;;;;;12.64;55.75;98912.28;4132266;28;20023;-70
2024/02/22 00:36:29;;;;;;;4.28;1.75;;;;;;;12.48;56.38;98907.09;4131732;28;20451;-71
2024/02/22 00:38:29;;;;;;;3.67;1.33;;;;;;;12.68;55.83;98902.03;4131643;28;20161;-70
2024/02/22 00:40:30;;;;;;;2.92;1.30;;;;;;;12.68;56.08;98895.81;4131807;28;20041;-70
2024/02/22 00:42:34;;;;;;;3.28;1.52;;;;;;;12.76;55.68;98883.16;4131780;28;20022;-70
2024/02/22 00:44:35;;;;;;;3.83;1.70;;;;;;;12.71;56.04;98884.72;4131486;28;20034;-69
2024/02/22 00:46:36;;;;;;;2.78;1.08;;;;;;;12.86;55.59;98879.34;4130623;28;20124;-69
2024/02/22 00:48:36;;;;;;;3.33;1.42;;;;;;;12.81;55.61;98874.53;4131771;28;20019;-69
2024/02/22 00:50:37;;;;;;;3.88;1.30;;;;;;;12.72;55.98;98868.44;4131640;28;20030;-71
2024/02/22 00:52:37;;;;;;;2.67;1.13;;;;;;;12.88;55.46;98855.84;4131616;28;20501;-71
2024/02/22 00:54:37;;;;;;;3.50;1.20;;;;;;;12.91;55.65;98855.44;4131265;28;20034;-71
2024/02/22 00:56:38;;;;;;;3.90;1.73;;;;;;;12.82;55.95;98857.44;4127556;28;20026;-70
2024/02/22 00:58:39;;;;;;;5.78;1.38;;;;;;;12.69;56.19;98852.75;4131178;28;20100;-70
2024/02/22 01:00:39;;;;;;;;;;;;;;;12.62;56.82;98855.34;4130711;28;20037;-70
2024/02/22 01:02:40;;;;;;;3.40;1.30;;;;;;;12.66;56.48;98841.56;4131333;28;20012;-70
2024/02/22 01:04:42;;;;;;;2.80;1.10;;;;;;;12.68;56.40;98842.19;4131544;28;20026;-70
2024/02/22 01:06:43;;;;;;;3.20;1.42;;;;;;;12.76;55.93;98831.34;4129715;28;20561;-69
2024/02/22 01:08:43;;;;;;;3.90;1.48;;;;;;;12.64;56.55;98829.19;4131515;28;20023;-70
2024/02/22 01:10:44;;;;;;;3.50;1.33;;;;;;;12.62;56.56;98833.03;4130493;28;20145;-71
2024/02/22 01:12:44;;;;;;;4.15;1.20;;;;;;;12.63;56.57;98821.31;4132201;28;20030;-69
2024/02/22 01:14:45;;;;;;;5.15;1.52;;;;;;;12.66;56.60;98825.47;4141291;28;20062;-71
2024/02/22 01:16:50;;;;;;;3.55;1.20;;;;;;;12.71;56.50;98823.88;4147364;28;20088;-70
2024/02/22 01:18:50;;;;;;;3.50;1.30;;;;;;;12.74;56.25;98804.72;4141202;28;20029;-71
2024/02/22 01:20:50;;;;;;;3.85;1.42;;;;;;;12.61;56.70;98812.66;4136912;28;20030;-69
2024/02/22 01:22:51;;;;;;;3.30;1.50;;;;;;;12.65;56.60;98808.56;4134659;28;20483;-70
2024/02/22 01:24:51;;;;;;;3.80;1.48;;;;;;;12.48;56.64;98814.13;4133059;28;20467;-70
2024/02/22 01:26:51;;;;;;;4.32;1.55;;;;;;;12.51;56.92;98806.75;4138703;28;20049;-71
2024/02/22 01:28:53;;;;;;;3.30;1.27;;;;;;;12.67;56.25;98801.16;4140702;28;20022;-70
2024/02/22 01:30:53;;;;;;;4.28;1.23;;;;;;;12.68;56.62;98801.97;4140744;28;20034;-70
2024/02/22 01:32:54;;;;;;;4.93;1.83;;;;;;;12.70;56.46;98789.22;4141095;28;20033;-70
2024/02/22 01:34:54;;;;;;;4.88;1.40;;;;;;;12.47;57.14;98779.47;4142848;28;20243;-70
2024/02/22 01:36:54;;;;;;;4.18;1.42;;;;;;;12.53;57.07;98786.75;4142478;28;20026;-71
2024/02/22 01:38:55;;;;;;;5.20;1.52;;;;;;;12.55;56.91;98779.38;4142650;28;20058;-69
2024/02/22 01:40:55;;;;;;;3.20;1.20;;;;;;;12.51;56.87;98770.03;4142122;28;20029;-71
2024/02/22 01:42:56;;;;;;;3.80;1.58;;;;;;;12.54;56.49;98769.66;4136213;28;20517;-71
2024/02/22 01:44:58;;;;;;;4.65;1.23;;;;;;;12.68;56.48;98759.06;4134193;28;20026;-70
2024/02/22 01:46:59;;;;;;;5.15;1.90;;;;;;;12.75;56.18;98757.31;4130994;28;20122;-71
2024/02/22 01:49:00;;;;;;;3.80;1.45;;;;;;;12.87;55.73;98753.09;4130930;28;20463;-69
2024/02/22 01:51:02;;;;;;;3.80;1.40;;;;;;;12.87;55.71;98750.41;4130491;28;20045;-69
2024/02/22 01:53:03;;;;;;;6.93;1.48;;;;;;;12.78;56.20;98756.91;4130935;28;20057;-70
2024/02/22 01:55:08;;;;;;;3.60;1.60;;;;;;;12.82;55.93;98752.00;4130692;28;20494;-70
2024/02/22 01:57:09;;;;;;;4.32;1.50;;;;;;;12.83;56.08;98733.06;4131113;28;20041;-71
2024/02/22 01:59:10;;;;;;;4.57;1.88;;;;;;;13.00;55.71;98740.84;4130738;28;20440;-71
2024/02/22 02:01:11;;;;;;;4.38;1.80;;;;;;;12.93;55.89;98730.88;4130448;28;20042;-71
2024/02/22 02:03:11;;;;;;;3.97;1.60;;;;;;;12.77;56.50;98736.47;4130464;28;20050;-70
2024/02/22 02:05:12;;;;;;;4.80;1.75;;;;;;;12.77;56.49;98731.13;4130201;28;20034;-72
2024/02/22 02:07:12;;;;;;;4.30;1.63;;;;;;;12.84;56.48;98728.50;4130435;28;20034;-69
2024/02/22 02:09:16;;;;;;;4.20;1.60;;;;;;;12.60;57.09;98734.06;4130714;28;20447;-71
2024/02/22 02:11:16;;;;;;;3.28;1.48;;;;;;;12.79;56.79;98715.66;4130308;28;20037;-71
2024/02/22 02:13:17;;;;;;;4.32;1.70;;;;;;;12.62;57.29;98718.63;4130516;28;20030;-71
2024/02/22 02:15:18;;;;;;;3.67;1.35;;;;;;;12.75;57.03;98712.53;4130436;28;20031;-70
2024/02/22 02:17:18;;;;;;;3.70;1.40;;;;;;;12.59;57.52;98702.91;4130578;28;20092;-70
2024/02/22 02:19:19;;;;;;;3.22;1.35;;;;;;;12.51;57.71;98700.34;4130581;28;20030;-70
2024/02/22 02:21:32;;;;;;;;;;;;;;;12.51;58.04;98694.16;4130729;28;20034;-70
2024/02/22 02:23:47;;;;;;;3.13;1.30;;;;;;;12.57;57.62;98699.56;4130829;28;19910;-70
2024/02/22 02:25:48;;;;;;;4.10;1.23;;;;;;;12.63;57.65;98696.16;4135768;28;20030;-71
2024/02/22 02:27:49;;;;;;;3.53;1.13;;;;;;;12.63;57.88;98687.25;4136160;28;20022;-70
2024/02/22 02:29:49;;;;;;;3.05;1.10;;;;;;;12.49;58.55;98691.66;4136252;28;20030;-70
2024/02/22 02:31:50;;;;;;;2.67;1.10;;;;;;;12.73;58.11;98677.03;4135784;28;20687;-71
2024/02/22 02:33:50;;;;;;;;;;;;;;;12.42;59.60;98682.72;4136953;28;20088;-70
2024/02/22 02:35:52;;;;;;;3.53;1.50;;;;;;;12.20;60.05;98677.31;4135843;28;20012;-70
2024/02/22 02:37:54;;;;;;;2.70;1.00;;;;;;;12.31;60.10;98674.16;4133863;28;20688;-70
2024/02/22 02:39:55;;;;;;;3.20;1.35;;;;;;;12.24;60.44;98662.56;4135975;28;20034;-71
2024/02/22 02:41:55;;;;;;;3.30;1.23;;;;;;;12.19;60.66;98677.53;4148168;28;20083;-69
2024/02/22 02:43:56;;;;;;;4.35;1.23;;;;;;;12.24;60.74;98662.56;4154673;28;20040;-70
2024/02/22 02:45:56;;;;;;;3.00;1.10;;;;;;;12.34;60.76;98667.59;4140563;28;20109;-70
2024/02/22 02:47:57;;;;;;;3.03;1.23;;;;;;;12.30;60.81;98660.97;4145781;28;20030;-70
2024/02/22 02:49:57;;;;;;;3.17;1.20;;;;;;;12.38;60.83;98660.00;4168806;28;20033;-70
2024/02/22 02:51:58;;;;;;;3.20;1.02;;;;;;;12.10;61.77;98666.94;4163132;28;20049;-69
2024/02/22 02:53:58;;;;;;;3.92;1.50;;;;;;;12.15;62.19;98653.78;4146630;28;20033;-70
2024/02/22 02:55:59;;;;;;;2.63;1.10;;;;;;;12.06;62.21;98652.22;4134509;28;20030;-70
2024/02/22 02:58:00;;;;;;;3.97;1.30;;;;;;;12.01;62.77;98658.16;4136353;28;20030;-70
2024/02/22 03:00:00;;;;;;;2.95;1.10;;;;;;;11.83;63.67;98645.16;4135113;28;20121;-69
2024/02/22 03:02:01;;;;;;;3.70;1.30;;;;;;;11.88;63.92;98649.94;4134932;28;20483;-69
2024/02/22 03:04:02;;;;;;;2.45;1.02;;;;;;;11.77;64.27;98647.75;4134743;28;20058;-70
2024/02/22 03:06:02;;;;;;;2.70;1.08;;;;;;;11.88;64.32;98655.31;4135880;28;20392;-69
2024/02/22 03:08:03;;;;;;;2.80;1.20;;;;;;;11.98;64.04;98641.63;4136446;28;20410;-68
2024/02/22 03:10:06;;;;;;;2.67;0.93;;;;;;;11.98;64.20;98642.50;4137631;28;20051;-69
2024/02/22 03:12:07;;;;;;;3.70;1.40;;;;;;;11.89;65.03;98632.88;4135395;28;20072;-69
2024/02/22 03:14:09;;;;;;;;;;;;;;;11.63;66.38;98634.19;4134652;28;20030;-68
2024/02/22 03:16:11;;;;;;;4.38;1.20;;;;;;;11.77;65.52;98629.00;4135467;28;19968;-70
2024/02/22 03:18:11;;;;;;;2.60;1.00;;;;;;;11.77;65.86;98629.81;4135019;28;20054;-69
2024/02/22 03:20:11;;;;;;;3.60;1.10;;;;;;;11.63;66.46;98619.97;4135290;28;20026;-69
2024/02/22 03:22:14;;;;;;;3.97;1.30;;;;;;;11.78;66.19;98617.28;4135479;28;20103;-70
2024/02/22 03:24:14;;;;;;;3.53;1.15;;;;;;;11.71;66.51;98623.38;4135380;28;20062;-69
2024/02/22 03:26:16;;;;;;;2.20;0.85;;;;;;;11.78;66.43;98611.94;4134152;28;20029;-69
2024/02/22 03:28:18;;;;;;;3.47;1.10;;;;;;;11.70;66.92;98604.81;4135768;28;20027;-70
2024/02/22 03:30:19;;;;;;;2.28;0.90;;;;;;;11.70;67.30;98605.66;4135687;28;20038;-69
2024/02/22 03:32:20;;;;;;;3.42;1.23;;;;;;;11.59;67.76;98603.47;4136648;28;20026;-70
2024/02/22 03:34:20;;;;;;;3.03;1.15;;;;;;;11.65;67.88;98594.69;4135654;28;20049;-70
2024/02/22 03:36:22;;;;;;;2.42;0.95;;;;;;;11.70;67.52;98586.94;4132643;28;20034;-69
2024/02/22 03:38:23;;;;;;;3.75;1.20;;;;;;;11.62;68.23;98589.69;4132062;28;20449;-69
2024/02/22 03:40:23;;;;;;;3.00;1.10;;;;;;;11.70;67.95;98581.56;4133302;28;20038;-70
2024/02/22 03:42:24;;;;;;;3.40;1.10;;;;;;;11.76;68.18;98584.50;4133118;28;20058;-70
2024/02/22 03:44:27;;;;;;;3.58;1.25;;;;;;;11.70;68.47;98578.91;4145201;28;20026;-69
2024/02/22 03:46:47;;;;;;;1.95;0.82;;;;;;;11.76;68.40;98573.81;4152583;28;20026;-68
2024/02/22 03:48:51;;;;;;;2.70;1.27;;;;;;;11.65;68.59;98573.25;4151074;28;20074;-70
2024/02/22 03:50:51;;;;;;;4.15;1.17;;;;;;;11.83;68.06;98569.34;4133434;28;20037;-70
2024/02/22 03:52:52;;;;;;;2.85;1.00;;;;;;;11.58;69.00;98564.34;4132944;28;20386;-71
2024/02/22 03:54:52;;;;;;;3.00;1.15;;;;;;;11.66;68.58;98561.53;4131785;28;20033;-70
2024/02/22 03:56:53;;;;;;;2.63;1.20;;;;;;;11.73;68.41;98558.94;4132457;28;20419;-71
2024/02/22 03:58:53;;;;;;;2.50;1.00;;;;;;;11.68;68.65;98556.84;4132454;28;20682;-72
2024/02/22 04:00:53;;;;;;;4.28;1.40;;;;;;;11.68;68.95;98556.00;4132506;28;20030;-71
2024/02/22 04:02:54;;;;;;;2.30;0.88;;;;;;;11.75;68.72;98562.28;4131962;28;20640;-71
2024/02/22 04:04:54;;;;;;;2.72;0.93;;;;;;;11.78;68.82;98561.06;4132281;28;20041;-71
2024/02/22 04:06:56;;;;;;;3.78;1.52;;;;;;;11.64;68.88;98555.53;4132339;28;20058;-70
2024/02/22 04:08:57;;;;;;;3.08;0.98;;;;;;;11.57;69.28;98549.28;4131768;28;20136;-70
2024/02/22 04:10:57;;;;;;;2.75;0.93;;;;;;;11.75;69.05;98551.56;4147056;28;20033;-70
2024/02/22 04:12:57;;;;;;;2.13;0.80;;;;;;;11.65;69.20;98546.50;4132514;28;20026;-71
2024/02/22 04:14:58;;;;;;;2.90;1.13;;;;;;;11.64;69.31;98546.69;4131617;28;20061;-71
2024/02/22 04:16:59;;;;;;;2.40;0.93;;;;;;;11.59;69.71;98549.94;4130871;28;20033;-70
2024/02/22 04:19:00;;;;;;;3.00;1.20;;;;;;;11.73;69.21;98542.03;4132419;28;20027;-70
2024/02/22 04:21:00;;;;;;;2.90;1.27;;;;;;;11.74;69.26;98544.56;4131396;28;20034;-70
2024/02/22 04:23:01;;;;;;;2.40;0.98;;;;;;;11.70;69.40;98538.75;4132439;28;20037;-71
2024/02/22 04:25:01;;;;;;;2.90;1.17;;;;;;;11.77;69.10;98540.66;4131627;28;20034;-70
2024/02/22 04:27:02;;;;;;;2.40;0.93;;;;;;;11.63;69.65;98542.34;4132373;28;20089;-71
2024/02/22 04:29:03;;;;;;;2.85;1.17;;;;;;;11.87;68.70;98527.78;4132443;28;20679;-70
2024/02/22 04:31:04;;;;;;;;;;;;;;;11.76;69.32;98530.97;4132190;28;20061;-71
2024/02/22 04:33:04;;;;;;;2.28;0.90;;;;;;;11.78;68.96;98528.94;4132117;28;19913;-69
2024/02/22 04:35:05;;;;;;;2.45;1.17;;;;;;;11.85;69.04;98532.50;4132092;28;20096;-70
2024/02/22 04:37:06;;;;;;;2.33;1.13;;;;;;;11.88;68.89;98528.59;4133333;28;20407;-71
2024/02/22 04:39:07;;;;;;;2.40;1.30;;;;;;;11.94;68.72;98527.88;4133946;28;20050;-71
2024/02/22 04:41:08;;;;;;;2.20;0.93;;;;;;;11.77;69.05;98517.38;4135051;28;20026;-71
2024/02/22 04:43:08;;;;;;;1.90;0.80;;;;;;;11.81;69.25;98524.03;4135767;28;20383;-71
2024/02/22 04:45:09;;;;;;;2.90;0.88;;;;;;;11.93;68.81;98513.63;4135552;28;20113;-72
2024/02/22 04:47:09;;;;;;;3.17;1.25;;;;;;;11.82;69.23;98519.50;4134467;28;20379;-72
2024/02/22 04:49:10;;;;;;;2.75;1.13;;;;;;;11.74;69.83;98517.78;4137710;28;20376;-71
2024/02/22 04:51:10;;;;;;;3.55;1.20;;;;;;;11.85;69.29;98509.22;4137866;28;20081;-70
2024/02/22 04:53:10;;;;;;;1.92;0.88;;;;;;;11.62;70.52;98506.72;4136980;28;20030;-71
2024/02/22 04:55:11;;;;;;;1.85;0.68;;;;;;;11.71;70.26;98505.56;4135396;28;20030;-69
2024/02/22 04:57:11;;;;;;;1.63;0.70;;;;;;;11.66;70.35;98505.34;4133147;28;20034;-70
2024/02/22 04:59:12;;;;;;;2.08;0.93;;;;;;;11.59;70.64;98491.06;4132260;28;20113;-69
2024/02/22 05:01:12;;;;;;;2.28;0.95;;;;;;;11.64;70.85;98493.97;4137740;28;20093;-69
2024/02/22 05:03:12;;;;;;;1.80;0.80;;;;;;;11.64;70.79;98485.94;4139225;28;20050;-69
2024/02/22 05:05:13;;;;;;;3.38;0.98;;;;;;;11.52;71.21;98490.16;4131827;28;20030;-70
2024/02/22 05:07:14;;;;;;;3.22;1.00;;;;;;;11.70;70.86;98489.72;4138587;28;20038;-71
2024/02/22 05:09:15;;;;;;;2.50;1.08;;;;;;;11.71;70.80;98492.19;4143858;28;20087;-70
2024/02/22 05:11:15;;;;;;;2.58;0.90;;;;;;;11.68;71.08;98476.53;4146761;28;20030;-69
2024/02/22 05:13:16;;;;;;;2.70;1.02;;;;;;;11.49;71.81;98474.47;4159312;28;20033;-71
2024/02/22 05:15:16;;;;;;;2.90;1.20;;;;;;;11.63;71.63;98464.75;4162495;28;20021;-69
2024/02/22 05:17:17;;;;;;;2.90;1.02;;;;;;;11.54;71.96;98466.69;4162721;28;20037;-70
2024/02/22 05:19:17;;;;;;;2.95;1.00;;;;;;;11.69;71.40;98461.28;4162949;28;20021;-69
2024/02/22 05:21:18;;;;;;;2.42;0.90;;;;;;;11.73;71.06;98461.72;4161566;28;20041;-69
2024/02/22 05:23:18;;;;;;;2.50;0.90;;;;;;;11.70;71.31;98446.88;4162991;28;20053;-69
2024/02/22 05:25:19;;;;;;;2.75;1.08;;;;;;;11.51;72.04;98459.88;4163021;28;20037;-69
2024/02/22 05:27:19;;;;;;;4.22;1.48;;;;;;;11.55;71.86;98445.13;4163485;28;20277;-69
2024/02/22 05:29:19;;;;;;;3.42;1.33;;;;;;;11.54;72.21;98442.59;4162059;28;20080;-69
2024/02/22 05:31:25;;;;;;;2.05;0.88;;;;;;;11.70;71.59;98442.38;4162764;28;20025;-68
2024/02/22 05:33:25;;;;;;;3.80;1.40;;;;;;;11.75;71.07;98433.78;4163336;28;20401;-70
2024/02/22 05:35:26;;;;;;;2.22;0.75;;;;;;;11.74;71.14;98434.78;4163020;28;20033;-70
2024/02/22 05:37:26;;;;;;;3.25;1.08;;;;;;;11.82;70.75;98431.97;4162737;28;20021;-68
2024/02/22 05:39:28;;;;;;;2.95;1.00;;;;;;;11.75;71.26;98430.25;4163015;28;20108;-70
2024/02/22 05:41:28;;;;;;;2.70;0.90;;;;;;;11.85;70.66;98425.41;4161289;28;20069;-70
2024/02/22 05:43:29;;;;;;;2.60;0.90;;;;;;;11.77;70.88;98422.88;4162305;28;20551;-70
2024/02/22 05:45:42;;;;;;;2.08;0.73;;;;;;;11.78;70.70;98422.66;4150660;28;20120;-71
2024/02/22 05:47:42;;;;;;;2.38;0.80;;;;;;;11.87;70.32;98412.66;4146566;28;20041;-71
2024/02/22 05:49:42;;;;;;;3.67;1.15;;;;;;;11.68;71.53;98400.75;4140390;28;20030;-71
2024/02/22 05:51:43;;;;;;;2.80;1.10;;;;;;;11.81;70.73;98403.53;4130140;28;20117;-71
2024/02/22 05:53:44;;;;;;;3.10;1.15;;;;;;;11.86;70.55;98401.09;4133469;28;20029;-70
2024/02/22 05:55:44;;;;;;;3.58;1.17;;;;;;;11.74;70.79;98401.81;4146526;28;20744;-70
2024/02/22 05:57:45;;;;;;;3.22;0.93;;;;;;;11.86;70.50;98397.63;4146471;28;20382;-70
2024/02/22 05:59:45;;;;;;;2.67;0.80;;;;;;;11.88;70.57;98400.94;4145868;28;20183;-72
2024/02/22 06:01:46;;;;;;;2.50;0.82;;;;;;;11.92;70.20;98386.13;4146851;28;20637;-71
2024/02/22 06:03:46;;;;;;;2.08;0.70;;;;;;;11.98;69.90;98396.09;4146561;28;20042;-71
2024/02/22 06:05:47;;;;;;;3.20;1.02;;;;;;;12.06;69.73;98392.44;4147161;28;20049;-72
2024/02/22 06:07:48;;;;;;;2.08;0.98;;;;;;;12.06;69.93;98397.78;4146095;28;20034;-70
2024/02/22 06:09:48;;;;;;;2.15;0.70;;;;;;;12.20;69.30;98397.91;4146543;28;20033;-71
2024/02/22 06:11:49;;;;;;;2.03;0.68;;;;;;;12.09;69.51;98393.91;4144657;28;20033;-71
2024/02/22 06:13:49;;;;;;;3.45;0.93;;;;;;;12.12;69.80;98396.19;4146677;28;20034;-70
2024/02/22 06:15:50;;;;;;;2.53;1.05;;;;;;;12.12;69.66;98390.81;4146379;28;20406;-70
2024/02/22 06:17:50;;;;;;;2.58;0.80;;;;;;;12.14;69.78;98388.78;4146377;28;20030;-71
2024/02/22 06:19:51;;;;;;;2.22;0.85;;;;;;;11.92;70.53;98380.75;4146343;28;20540;-70
2024/02/22 06:21:52;;;;;;;2.92;1.00;;;;;;;12.05;70.34;98381.94;4146165;28;20055;-70
2024/02/22 06:23:54;;;;;;;2.42;1.00;;;;;;;12.16;69.93;98376.03;4146381;28;20030;-70
2024/02/22 06:25:56;;;;;;;2.35;1.05;;;;;;;12.14;70.02;98383.44;4145879;28;20429;-68
2024/02/22 06:27:57;;;;;;;3.00;0.93;;;;;;;12.13;70.10;98376.41;4146310;28;20036;-70
2024/02/22 06:29:57;;;;;;;3.53;1.00;;;;;;;12.21;70.05;98373.59;4146666;28;20654;-70
2024/02/22 06:31:58;;;;;;;1.77;0.70;;;;;;;12.28;69.60;98369.09;4146655;28;20030;-69
2024/02/22 06:33:59;;;;;;;;;;;;;;;11.99;70.76;98373.66;4149221;28;20474;-70
2024/02/22 06:35:59;;;;;;;3.43;1.27;;;;;;;12.04;70.65;98364.19;4149943;28;19917;-70
2024/02/22 06:37:59;;;;;;;4.45;1.23;;;;;;;12.11;70.21;98365.06;4149872;28;20026;-70
2024/02/22 06:40:00;;;;;;;3.80;1.10;;;;;;;12.05;70.71;98363.19;4148290;28;20026;-70
2024/02/22 06:42:01;;;;;;;2.95;1.17;;;;;;;12.01;71.17;98360.88;4149948;28;20061;-68
2024/02/22 06:44:02;;;;;;;2.50;0.98;;;;;;;12.18;70.48;98357.91;4148035;28;20021;-69
2024/02/22 06:46:03;;;;;;;2.65;0.95;;;;;;;12.15;70.51;98364.47;4146400;28;20022;-69
2024/02/22 06:48:06;;;;;;;2.85;1.00;;;;;;;12.15;70.71;98355.63;4146370;28;20026;-69
2024/02/22 06:50:07;;;;;;;3.40;1.27;;;;;;;12.11;70.98;98352.50;4150339;28;20659;-69
2024/02/22 06:52:07;;;;;;;2.30;0.88;;;;;;;12.06;71.22;98348.75;4162094;28;20021;-70
2024/02/22 06:54:09;;;;;;;3.10;0.90;;;;;;;12.11;71.17;98346.31;4162490;28;20061;-70
2024/02/22 06:56:09;;;;;;;2.67;0.95;;;;;;;11.98;71.63;98342.53;4162040;28;20067;-69
2024/02/22 06:58:10;;;;;;;3.53;1.23;;;;;;;11.88;71.73;98342.03;4160853;28;20382;-70
2024/02/22 07:00:14;;;;;;;3.25;1.58;;;;;;;11.96;71.73;98341.88;4161878;28;20036;-71
2024/02/22 07:02:15;;;;;;;3.15;0.95;;;;;;;11.92;72.21;98335.25;4161969;28;20029;-71
2024/02/22 07:04:16;;;;;;;2.70;1.00;;;;;;;12.02;71.57;98342.97;4160407;28;20060;-71
2024/02/22 07:06:16;;;;;;;4.75;1.10;;;;;;;11.98;71.87;98342.53;4156672;28;20033;-70
2024/02/22 07:08:17;;;;;;;2.78;1.15;;;;;;;11.99;71.56;98341.53;4162173;28;20539;-69
2024/02/22 07:10:17;;;;;;;4.22;1.10;;;;;;;11.89;72.39;98334.81;4160857;28;20022;-70
2024/02/22 07:12:18;;;;;;;2.67;0.80;;;;;;;11.99;72.04;98327.28;4165309;28;20505;-71
2024/02/22 07:14:18;;;;;;;2.53;0.70;;;;;;;11.94;72.13;98327.03;4165284;28;20693;-70
2024/02/22 07:16:19;;;;;;;3.92;0.82;;;;;;;11.98;72.11;98331.84;4163717;28;20040;-70
2024/02/22 07:18:19;;;;;;;2.47;0.98;;;;;;;11.90;72.02;98325.75;4163774;28;20025;-70
2024/02/22 07:20:19;;;;;;;3.42;1.02;;;;;;;11.97;72.32;98323.94;4164983;28;20072;-70
2024/02/22 07:22:20;;;;;;;2.53;1.13;;;;;;;11.88;72.50;98335.81;4165170;28;20021;-71
2024/02/22 07:24:21;;;;;;;5.70;1.15;;;;;;;12.00;72.00;98326.28;4165075;28;20264;-71
2024/02/22 07:26:21;;;;;;;2.45;0.80;;;;;;;11.96;72.19;98323.13;4165804;28;20117;-70
2024/02/22 07:28:22;;;;;;;4.53;1.50;;;;;;;11.87;72.80;98324.31;4165122;28;20024;-72
2024/02/22 07:30:23;;;;;;;;;;;;;;;11.96;72.96;98322.28;4165393;28;20542;-70
2024/02/22 07:32:24;;;;;;;3.95;1.27;;;;;;;11.81;73.25;98322.38;4164657;28;19913;-70
2024/02/22 07:34:24;;;;;;;3.20;1.10;;;;;;;11.86;72.95;98322.66;4165374;28;20105;-70
2024/02/22 07:36:25;;;;;;;3.97;1.20;;;;;;;11.79;73.41;98322.59;4164783;28;20561;-71
2024/02/22 07:38:25;;;;;;;3.33;1.25;;;;;;;11.88;73.33;98315.25;4164721;28;20041;-70
2024/02/22 07:40:26;;;;;;;3.80;1.02;;;;;;;11.86;73.20;98315.44;4170122;28;20052;-70
2024/02/22 07:42:27;;;;;;;3.50;0.80;;;;;;;11.94;72.80;98314.47;4170718;28;20025;-70
2024/02/22 07:44:28;;;;;;;;;;;;;;;11.58;74.64;98315.44;4168705;28;20071;-70
2024/02/22 07:46:29;;;;;;;3.95;1.20;;;;;;;11.81;73.87;98309.00;4165000;28;20004;-70
2024/02/22 07:48:30;;;;;;;2.90;1.00;;;;;;;11.88;73.51;98309.91;4165921;28;20340;-71
2024/02/22 07:50:30;;;;;;;2.70;0.85;;;;;;;11.78;74.18;98304.06;4158260;28;20402;-71
2024/02/22 07:52:31;;;;;;;2.97;1.20;;;;;;;11.66;74.52;98304.59;4150206;28;20029;-71
2024/02/22 07:54:31;;;;;;;3.10;1.27;;;;;;;11.71;74.48;98294.09;4148415;28;20018;-71
2024/02/22 07:56:33;;;;;;;4.38;1.10;;;;;;;11.76;74.56;98300.75;4148600;28;20037;-71
2024/02/22 07:58:46;;;;;;;2.95;1.00;;;;;;;11.84;74.30;98289.88;4148760;28;20379;-71
2024/02/22 08:00:46;;;;;;;3.97;1.35;;;;;;;11.85;74.39;98295.03;4147826;28;20124;-71
2024/02/22 08:02:47;;;;;;;3.70;1.10;;;;;;;11.98;73.98;98299.69;4147954;28;20585;-71
2024/02/22 08:04:50;;;;;;;4.35;1.30;;;;;;;12.01;73.65;98285.88;4147496;28;20478;-71
2024/02/22 08:06:50;;;;;;;3.70;1.10;;;;;;;11.85;74.51;98289.66;4145573;28;20037;-71
2024/02/22 08:08:52;;;;;;;4.57;1.30;;;;;;;11.91;74.16;98279.22;4147616;28;20089;-71
2024/02/22 08:10:52;;;;;;;3.03;1.00;;;;;;;11.91;74.12;98276.53;4148950;28;20025;-70
2024/02/22 08:12:53;;;;;;;2.70;0.88;;;;;;;11.92;74.48;98279.00;4148303;28;20574;-71
2024/02/22 08:14:53;;;;;;;;;;;;;;;12.04;74.24;98281.19;4148059;28;20026;-71
2024/02/22 08:16:54;;;;;;;2.97;1.07;;;;;;;11.98;74.00;98272.91;4148229;28;20478;-71
2024/02/22 08:18:55;;;;;;;3.70;1.13;;;;;;;11.98;74.18;98267.56;4148136;28;20033;-74
2024/02/22 08:20:55;;;;;;;3.55;1.23;;;;;;;12.05;74.09;98272.13;4147550;28;20105;-73
2024/02/22 08:22:56;;;;;;;3.00;1.02;;;;;;;12.05;74.21;98261.41;4145412;28;20125;-73
2024/02/22 08:24:56;;;;;;;4.40;1.00;;;;;;;11.98;74.59;98262.22;4148508;28;20429;-73
2024/02/22 08:26:57;;;;;;;2.22;0.90;;;;;;;11.91;74.74;98260.47;4147434;28;20018;-74
2024/02/22 08:28:57;;;;;;;3.03;1.50;;;;;;;12.02;74.55;98268.81;4147686;28;20030;-74
2024/02/22 08:30:58;;;;;;;2.95;0.90;;;;;;;11.85;74.70;98257.53;4147156;28;20261;-74
2024/02/22 08:32:59;;;;;;;3.63;1.02;;;;;;;12.09;74.17;98257.31;4147679;28;20026;-74
2024/02/22 08:34:59;;;;;;;2.38;0.80;;;;;;;12.09;74.06;98247.41;4147841;28;20030;-74
2024/02/22 08:37:00;;;;;;;3.33;1.40;;;;;;;12.26;73.31;98247.06;4156735;28;20026;-74
2024/02/22 08:39:00;;;;;;;3.88;0.90;;;;;;;12.09;73.93;98249.28;4161037;28;20109;-75
2024/02/22 08:41:01;;;;;;;4.47;1.30;;;;;;;12.11;73.58;98239.19;4153812;28;20100;-74
2024/02/22 08:43:02;;;;;;;4.43;1.40;;;;;;;12.08;73.89;98239.59;4147843;28;20029;-72
2024/02/22 08:45:02;;;;;;;4.13;1.50;;;;;;;12.11;73.73;98244.53;4147375;28;20386;-72
2024/02/22 08:47:03;;;;;;;3.08;1.10;;;;;;;12.18;73.72;98245.41;4147828;28;20084;-72
2024/02/22 08:49:05;;;;;;;4.75;1.30;;;;;;;12.31;73.32;98245.44;4147523;28;20032;-72
2024/02/22 08:51:05;;;;;;;3.60;1.30;;;;;;;12.36;72.88;98236.81;4147281;28;20026;-73
2024/02/22 08:53:06;;;;;;;5.22;1.38;;;;;;;12.20;73.43;98237.97;4147324;28;20402;-73
2024/02/22 08:55:11;;;;;;;5.00;1.70;;;;;;;12.34;73.36;98228.16;4147511;28;20103;-73
2024/02/22 08:57:11;;;;;;;4.88;1.85;;;;;;;12.06;74.25;98230.94;4147470;28;20026;-73
2024/02/22 08:59:12;;;;;;;4.50;1.65;;;;;;;12.28;73.75;98228.94;4145830;28;20597;-72
2024/02/22 09:01:12;;;;;;;4.40;1.52;;;;;;;12.34;73.41;98217.44;4147084;28;20614;-73
2024/02/22 09:03:13;;;;;;;5.45;2.00;;;;;;;12.22;73.84;98217.19;4147192;28;20045;-72
2024/02/22 09:05:14;;;;;;;6.57;2.55;;;;;;;12.35;73.65;98219.09;4147937;28;20113;-72
2024/02/22 09:07:14;;;;;;;4.63;2.47;;;;;;;12.23;74.03;98216.16;4145909;28;20490;-72
2024/02/22 09:09:14;;;;;;;6.32;2.70;;;;;;;12.23;73.92;98216.16;4148236;28;20030;-72
2024/02/22 09:11:15;;;;;;;3.75;1.48;;;;;;;12.43;73.49;98218.09;4147436;28;20113;-72
2024/02/22 09:13:15;;;;;;;3.97;1.80;;;;;;;12.37;73.44;98211.69;4147106;28;20036;-71
2024/02/22 09:15:16;;;;;;;5.90;1.95;;;;;;;12.23;73.81;98205.44;4146920;28;20026;-71
2024/02/22 09:17:16;;;;;;;3.85;1.60;;;;;;;12.46;72.75;98194.38;4146969;28;20026;-72
2024/02/22 09:19:17;;;;;;;4.07;1.63;;;;;;;12.33;73.22;98192.50;4146743;28;20058;-71
2024/02/22 09:21:18;;;;;;;4.72;1.63;;;;;;;12.43;72.90;98188.59;4146388;28;20421;-73
2024/02/22 09:23:19;;;;;;;5.07;1.60;;;;;;;12.27;73.77;98185.28;4147114;28;20049;-72
2024/02/22 09:25:19;;;;;;;4.30;1.70;;;;;;;12.24;73.82;98174.94;4146705;28;20033;-72
2024/02/22 09:27:20;;;;;;;7.22;1.67;;;;;;;12.31;73.66;98177.66;4146864;28;20497;-71
2024/02/22 09:29:20;;;;;;;5.22;1.70;;;;;;;12.30;73.46;98163.41;4146710;28;20080;-72
2024/02/22 09:31:21;;;;;;;3.55;1.80;;;;;;;12.33;73.39;98173.75;4146269;28;20033;-72